Forside
METAR-TAF:

METAR-TAF

Lufthavne :

Naha, Japan

Breddekreds: 26-11N, længdekreds: 127-39E, højde: 3 m

Aktuelle vejr

Denne rapport blev lavet for 27 minutter siden, kl. 01:30 UTC
Vind 1 kt fra varierende retninger
Temperatur 20°C
Fugtighed 78%
Tryk 1018 hPa
Sigt 10 km eller mere
Nogle få skyer i en højde af 2500 ft
Brudte skyer i en højde af 10000 ft
let regn

METAR: ROAH 240130Z VRB01KT 9999 -RA FEW025 BKN100 20/16 Q1018 RMK 2CU025 6AC100 A3006

Tid: 10:57 (01:57 UTC)

Vejrudsigter

Denne rapport blev lavet for 2 timer og 51 minutter siden, kl. 23:06 UTC
Foreløbig gælder fra 24 på 00 UTC til 25 på 06 UTC
Vind 6 kt fra vestsydvest
Sigt 10 km eller mere
Nogle få skyer i en højde af 1500 ft
Brudte skyer i en højde af 2500 ft
ændring
fra 24 på 01 UTC til 24 på 03 UTC
Vind 8 kt fra nordnordvest
Midlertidig
fra 24 på 06 UTC til 24 på 09 UTC
Sigt: 4000 m
regnbyger

TAF: ROAH 232306Z 2400/2506 24006KT 9999 FEW015 BKN025 BECMG 2401/2403 34008KT TEMPO 2406/2409 4000 SHRA

Vejrobservationer og prognoser fra mere end 4000 lufthavne (METAR og TAF).

De gule og røde prikker repræsenterer de meteorologiske stationer.

Flyt musen over at se navnet på stationen.

Så klik over at se vejr observationer og prognoser.

At skifte det kort: Klik på de grønne knapper med et sort kors for at zoome ind; på den grønne knap med en bindestreg for at zoome ud; eller på de grønne pile for tilstødende kort.


METAR-TAF: